createdAt,value
2023-03-29T00:02:11.583Z,11.65
2023-03-29T00:04:39.047Z,12.73
2023-03-29T00:07:05.976Z,13.13
2023-03-29T00:09:33.515Z,11.52
2023-03-29T00:12:01.808Z,12.60
2023-03-29T00:14:30.826Z,13.88
2023-03-29T00:16:58.505Z,12.75
2023-03-29T00:19:25.614Z,14.30
2023-03-29T00:21:52.302Z,14.73
2023-03-29T00:24:21.237Z,14.90
2023-03-29T00:26:48.491Z,14.63
2023-03-29T00:29:15.165Z,10.50
2023-03-29T00:31:41.817Z,10.90
2023-03-29T00:34:08.499Z,13.68
2023-03-29T00:36:35.111Z,14.38
2023-03-29T00:39:02.231Z,13.20
2023-03-29T00:41:28.947Z,11.50
2023-03-29T00:44:01.002Z,13.60
2023-03-29T00:46:30.464Z,12.25
2023-03-29T00:49:09.464Z,14.73
2023-03-29T00:51:40.420Z,12.07
2023-03-29T00:54:14.735Z,14.82
2023-03-29T00:56:45.051Z,13.05
2023-03-29T00:59:25.390Z,12.45
2023-03-29T01:01:57.255Z,13.07
2023-03-29T01:04:31.084Z,13.65
2023-03-29T01:07:07.450Z,13.52
2023-03-29T01:09:38.121Z,13.35
2023-03-29T01:12:17.289Z,12.75
2023-03-29T01:14:54.214Z,12.50
2023-03-29T01:17:25.626Z,12.25
2023-03-29T01:19:59.038Z,14.07
2023-03-29T01:22:45.831Z,14.90
2023-03-29T01:25:44.699Z,13.68
2023-03-29T01:28:22.164Z,14.77
2023-03-29T01:30:55.342Z,16.67
2023-03-29T01:33:27.891Z,14.45
2023-03-29T01:36:12.987Z,15.00
2023-03-29T01:39:12.080Z,14.73
2023-03-29T01:41:39.757Z,14.15
2023-03-29T01:44:12.189Z,15.70
2023-03-29T01:46:46.158Z,15.52
2023-03-29T01:49:25.605Z,15.77
2023-03-29T01:51:58.959Z,14.13
2023-03-29T01:54:27.763Z,16.27
2023-03-29T01:56:57.150Z,17.75
2023-03-29T01:59:29.101Z,15.23
2023-03-29T02:02:00.465Z,14.63
2023-03-29T02:04:34.712Z,14.55
2023-03-29T02:07:05.166Z,13.32
2023-03-29T02:09:33.796Z,17.05
2023-03-29T02:12:02.225Z,14.90
2023-03-29T02:14:30.398Z,16.27
2023-03-29T02:16:57.072Z,16.02
2023-03-29T02:19:25.951Z,14.55
2023-03-29T02:22:05.120Z,17.88
2023-03-29T02:24:34.485Z,15.32
2023-03-29T02:27:01.446Z,15.48
2023-03-29T02:29:28.123Z,17.20
2023-03-29T02:32:17.154Z,13.82
2023-03-29T02:34:50.257Z,16.23
2023-03-29T02:37:20.726Z,15.00
2023-03-29T02:42:20.349Z,15.70
2023-03-29T02:44:52.008Z,18.83
2023-03-29T02:47:23.015Z,16.60
2023-03-29T02:49:49.909Z,17.10
2023-03-29T02:52:22.648Z,16.13
2023-03-29T02:54:53.058Z,14.63
2023-03-29T02:57:26.667Z,18.10
2023-03-29T02:59:55.477Z,15.73
2023-03-29T03:02:22.924Z,16.77
2023-03-29T03:04:50.212Z,16.55
2023-03-29T03:07:16.918Z,15.60
2023-03-29T03:09:43.567Z,15.48
2023-03-29T03:12:10.265Z,17.70
2023-03-29T03:14:36.892Z,17.88
2023-03-29T03:17:04.931Z,17.30
2023-03-29T03:19:31.755Z,17.10
2023-03-29T03:21:59.653Z,16.38
2023-03-29T03:24:28.055Z,16.10
2023-03-29T03:26:54.791Z,15.90
2023-03-29T03:29:21.628Z,16.35
2023-03-29T03:31:49.880Z,17.20
2023-03-29T03:34:19.405Z,18.70
2023-03-29T03:36:47.264Z,16.20
2023-03-29T03:39:14.251Z,16.25
2023-03-29T03:41:41.311Z,15.77
2023-03-29T03:44:08.009Z,18.00
2023-03-29T03:46:34.611Z,16.00
2023-03-29T03:49:01.303Z,17.55
2023-03-29T03:51:27.925Z,15.80
2023-03-29T03:53:54.531Z,16.50
2023-03-29T03:56:21.278Z,15.52
2023-03-29T03:58:47.966Z,20.02
2023-03-29T04:01:14.553Z,19.17
2023-03-29T04:03:41.460Z,16.95
2023-03-29T04:06:09.797Z,16.92
2023-03-29T04:08:36.746Z,17.58
2023-03-29T04:11:04.631Z,16.98
2023-03-29T04:13:31.591Z,19.63
2023-03-29T04:16:00.906Z,17.63
2023-03-29T04:18:28.444Z,19.25
2023-03-29T04:20:55.276Z,18.33
2023-03-29T04:23:22.004Z,17.65
2023-03-29T04:25:48.588Z,17.75
2023-03-29T04:28:15.510Z,16.63
2023-03-29T04:30:42.155Z,19.42
2023-03-29T04:33:09.187Z,15.55
2023-03-29T04:35:35.936Z,20.05
2023-03-29T04:38:04.371Z,20.13
2023-03-29T04:40:31.287Z,16.88
2023-03-29T04:42:58.216Z,18.55
2023-03-29T04:45:25.303Z,19.85
2023-03-29T04:47:54.056Z,18.95
2023-03-29T04:50:20.851Z,19.13
2023-03-29T04:52:47.603Z,18.42
2023-03-29T04:55:14.256Z,19.20
2023-03-29T04:57:41.314Z,18.40
2023-03-29T05:00:14.354Z,18.90
2023-03-29T05:02:43.071Z,18.98
2023-03-29T05:05:10.578Z,18.17
2023-03-29T05:07:37.871Z,18.85
2023-03-29T05:10:05.395Z,20.17
2023-03-29T05:12:32.676Z,18.70
2023-03-29T05:14:59.245Z,17.98
2023-03-29T05:17:27.718Z,18.45
2023-03-29T05:19:54.804Z,20.55
2023-03-29T05:22:21.806Z,19.15
2023-03-29T05:24:48.850Z,17.55
2023-03-29T05:27:15.545Z,18.15
2023-03-29T05:29:42.579Z,17.30
2023-03-29T05:32:10.041Z,18.23
2023-03-29T05:34:37.170Z,19.63
2023-03-29T05:37:03.752Z,18.38
2023-03-29T05:39:31.671Z,20.70
2023-03-29T05:41:58.303Z,18.15
2023-03-29T05:44:24.923Z,20.00
2023-03-29T05:46:51.675Z,18.33
2023-03-29T05:49:18.521Z,19.20
2023-03-29T05:51:45.805Z,20.65
2023-03-29T05:54:12.701Z,20.63
2023-03-29T05:56:39.435Z,19.50
2023-03-29T05:59:08.422Z,19.70
2023-03-29T06:01:35.232Z,19.77
2023-03-29T06:04:02.121Z,20.40
2023-03-29T06:06:29.550Z,19.98
2023-03-29T06:08:56.719Z,19.85
2023-03-29T06:11:24.412Z,19.60
2023-03-29T06:13:51.797Z,19.83
2023-03-29T06:16:18.855Z,19.02
2023-03-29T06:18:45.570Z,19.20
2023-03-29T06:21:12.731Z,19.58
2023-03-29T06:23:39.629Z,19.45
2023-03-29T06:26:06.564Z,21.27
2023-03-29T06:28:33.324Z,19.52
2023-03-29T06:31:02.837Z,20.00
2023-03-29T06:33:32.451Z,19.85
2023-03-29T06:35:59.136Z,19.80
2023-03-29T06:38:28.502Z,19.13
2023-03-29T06:41:06.764Z,19.73
2023-03-29T06:43:34.827Z,19.48
2023-03-29T06:46:02.685Z,19.17
2023-03-29T06:48:29.573Z,21.17
2023-03-29T06:50:56.410Z,20.55
2023-03-29T06:53:23.283Z,19.27
2023-03-29T06:55:51.988Z,21.95
2023-03-29T06:58:18.661Z,23.80
2023-03-29T07:00:45.899Z,20.10
2023-03-29T07:03:20.048Z,20.00
2023-03-29T07:05:47.820Z,18.98
2023-03-29T07:08:16.571Z,20.85
2023-03-29T07:10:47.463Z,21.23
2023-03-29T07:13:15.718Z,18.95
2023-03-29T07:15:43.745Z,19.95
2023-03-29T07:18:12.667Z,19.90
2023-03-29T07:20:40.530Z,22.83
2023-03-29T07:23:09.155Z,18.65
2023-03-29T07:25:37.663Z,22.40
2023-03-29T07:28:04.933Z,19.77
2023-03-29T07:30:32.684Z,25.80
2023-03-29T07:32:59.702Z,21.20
2023-03-29T07:35:27.049Z,20.77
2023-03-29T07:37:55.872Z,19.80
2023-03-29T07:40:24.567Z,20.98
2023-03-29T07:42:54.269Z,19.90
2023-03-29T07:45:26.100Z,19.27
2023-03-29T07:47:59.346Z,19.65
2023-03-29T07:50:32.638Z,21.30
2023-03-29T07:53:00.994Z,19.02
2023-03-29T07:55:27.678Z,18.50
2023-03-29T07:57:54.947Z,19.58
2023-03-29T08:00:22.742Z,22.48
2023-03-29T08:02:52.331Z,20.92
2023-03-29T08:05:29.049Z,18.90
2023-03-29T08:08:01.078Z,18.33
2023-03-29T08:10:28.507Z,18.90
2023-03-29T08:12:55.297Z,18.65
2023-03-29T08:15:22.038Z,18.85
2023-03-29T08:17:48.786Z,17.95
2023-03-29T08:20:16.389Z,17.27
2023-03-29T08:22:43.588Z,20.30
2023-03-29T08:25:12.038Z,16.92
2023-03-29T08:27:39.669Z,19.10
2023-03-29T08:30:08.110Z,17.88
2023-03-29T08:32:35.527Z,18.63
2023-03-29T08:35:04.431Z,21.10
2023-03-29T08:37:31.885Z,17.90
2023-03-29T08:39:58.689Z,18.02
2023-03-29T08:42:31.301Z,19.15
2023-03-29T08:45:18.544Z,18.42
2023-03-29T08:47:54.028Z,18.45
2023-03-29T08:50:26.432Z,18.67
2023-03-29T08:52:59.182Z,20.75
2023-03-29T08:55:33.760Z,17.23
2023-03-29T08:58:02.936Z,17.52
2023-03-29T09:00:39.718Z,18.05
2023-03-29T09:03:19.400Z,19.73
2023-03-29T09:05:49.268Z,17.73
2023-03-29T09:08:17.696Z,19.47
2023-03-29T09:11:12.798Z,21.00
2023-03-29T09:14:04.739Z,20.77
2023-03-29T09:16:40.793Z,18.30
2023-03-29T09:19:25.498Z,18.65
2023-03-29T09:22:10.318Z,17.73
2023-03-29T09:24:55.135Z,18.85
2023-03-29T09:27:31.092Z,20.30
2023-03-29T09:30:07.233Z,21.33
2023-03-29T09:32:38.092Z,18.45
2023-03-29T09:35:18.577Z,21.05
2023-03-29T09:37:47.792Z,17.98
2023-03-29T09:40:21.961Z,18.25
2023-03-29T09:42:51.187Z,21.27
2023-03-29T09:45:17.972Z,18.30
2023-03-29T09:47:51.789Z,20.42
2023-03-29T09:50:31.573Z,18.17
2023-03-29T09:52:59.129Z,18.48
2023-03-29T09:55:29.900Z,22.52
2023-03-29T09:58:12.442Z,23.80
2023-03-29T10:00:40.279Z,19.77
2023-03-29T10:03:09.257Z,19.77
2023-03-29T10:05:37.972Z,20.65
2023-03-29T10:08:19.651Z,21.50
2023-03-29T10:10:47.316Z,19.80
2023-03-29T10:13:23.376Z,19.20
2023-03-29T10:16:17.152Z,20.02
2023-03-29T10:18:44.066Z,20.40
2023-03-29T10:21:15.849Z,20.92
2023-03-29T10:23:43.876Z,21.02
2023-03-29T10:26:20.280Z,20.25
2023-03-29T10:28:47.140Z,19.30
2023-03-29T10:31:20.058Z,21.10
2023-03-29T10:33:56.035Z,20.80
2023-03-29T10:36:26.269Z,22.20
2023-03-29T10:38:56.786Z,20.48
2023-03-29T10:43:51.720Z,20.92
2023-03-29T10:46:42.333Z,24.70
2023-03-29T10:51:46.432Z,20.95
2023-03-29T10:54:23.116Z,21.60
2023-03-29T10:56:57.102Z,20.40
2023-03-29T10:59:38.411Z,20.27
2023-03-29T11:02:14.269Z,19.13
2023-03-29T11:04:52.644Z,19.23
2023-03-29T11:07:31.695Z,21.45
2023-03-29T11:10:13.335Z,23.30
2023-03-29T11:13:05.848Z,19.33
2023-03-29T11:15:41.625Z,21.38
2023-03-29T11:18:27.902Z,24.00
2023-03-29T11:21:00.544Z,21.48
2023-03-29T11:23:36.102Z,21.02
2023-03-29T11:26:17.331Z,21.30
2023-03-29T11:28:53.854Z,19.90
2023-03-29T11:31:37.209Z,19.48
2023-03-29T11:34:17.836Z,20.80
2023-03-29T11:37:07.745Z,20.60
2023-03-29T11:40:01.008Z,20.90
2023-03-29T11:42:32.237Z,19.77
2023-03-29T11:45:02.370Z,19.70
2023-03-29T11:47:33.390Z,20.85
2023-03-29T11:50:06.451Z,20.70
2023-03-29T11:52:38.388Z,19.20
2023-03-29T11:55:20.328Z,20.05
2023-03-29T11:58:19.098Z,20.20
2023-03-29T12:00:55.789Z,18.98
2023-03-29T12:03:41.388Z,19.08
2023-03-29T12:06:23.962Z,19.70
2023-03-29T12:08:54.261Z,18.60
2023-03-29T12:11:40.771Z,18.80
2023-03-29T12:14:17.887Z,17.92
2023-03-29T12:16:57.117Z,19.95
2023-03-29T12:19:44.597Z,17.83
2023-03-29T12:22:11.516Z,17.92
2023-03-29T12:24:43.402Z,18.48
2023-03-29T12:27:30.876Z,18.95
2023-03-29T12:30:16.465Z,18.30
2023-03-29T12:32:56.270Z,19.38
2023-03-29T12:35:35.023Z,16.90
2023-03-29T12:38:23.194Z,20.35
2023-03-29T12:40:59.626Z,20.00
2023-03-29T12:43:28.508Z,16.65
2023-03-29T12:46:26.447Z,18.02
2023-03-29T12:48:57.378Z,17.98
2023-03-29T12:51:32.594Z,19.63
2023-03-29T12:54:18.026Z,17.35
2023-03-29T12:57:00.281Z,16.60
2023-03-29T12:59:34.756Z,18.27
2023-03-29T13:02:19.595Z,19.52
2023-03-29T13:04:57.920Z,17.08
2023-03-29T13:07:27.495Z,17.65
2023-03-29T13:09:55.092Z,18.70
2023-03-29T13:12:31.448Z,18.75
2023-03-29T13:15:02.805Z,18.48
2023-03-29T13:17:36.183Z,17.47
2023-03-29T13:20:05.783Z,19.38
2023-03-29T13:23:08.123Z,17.73
2023-03-29T13:25:46.870Z,19.98
2023-03-29T13:28:37.721Z,23.10
2023-03-29T13:31:16.780Z,17.35
2023-03-29T13:34:12.485Z,18.20
2023-03-29T13:37:06.900Z,18.08
2023-03-29T13:39:40.557Z,17.85
2023-03-29T13:42:17.999Z,17.70
2023-03-29T13:44:49.029Z,18.73
2023-03-29T13:47:37.080Z,17.83
2023-03-29T13:50:12.434Z,19.00
2023-03-29T13:52:50.131Z,18.85
2023-03-29T13:55:24.656Z,18.60
2023-03-29T13:58:27.404Z,18.42
2023-03-29T14:01:26.250Z,21.58
2023-03-29T14:03:55.524Z,17.35
2023-03-29T14:06:27.438Z,18.65
2023-03-29T14:08:55.226Z,18.20
2023-03-29T14:11:27.465Z,18.05
2023-03-29T14:14:00.054Z,18.33
2023-03-29T14:16:35.353Z,20.23
2023-03-29T14:19:13.543Z,18.70
2023-03-29T14:21:41.973Z,20.17
2023-03-29T14:24:12.853Z,17.88
2023-03-29T14:26:46.282Z,17.20
2023-03-29T14:29:13.161Z,17.17
2023-03-29T14:31:41.890Z,18.13
2023-03-29T14:34:28.763Z,20.98
2023-03-29T14:36:55.653Z,17.15
2023-03-29T14:39:23.435Z,17.98
2023-03-29T14:41:57.158Z,20.02
2023-03-29T14:44:34.674Z,16.85
2023-03-29T14:47:03.074Z,19.95
2023-03-29T14:49:30.301Z,17.50
2023-03-29T14:51:57.730Z,18.63
2023-03-29T14:54:27.909Z,21.02
2023-03-29T14:56:55.294Z,17.60
2023-03-29T14:59:41.265Z,19.20
2023-03-29T15:02:23.326Z,18.95
2023-03-29T15:05:00.642Z,19.38
2023-03-29T15:07:28.414Z,25.88
2023-03-29T15:09:58.640Z,23.40
2023-03-29T15:12:28.796Z,19.48
2023-03-29T15:14:55.637Z,18.67
2023-03-29T15:17:50.262Z,17.95
2023-03-29T15:20:26.130Z,19.15
2023-03-29T15:23:02.402Z,19.88
2023-03-29T15:25:37.596Z,18.35
2023-03-29T15:28:04.796Z,18.73
2023-03-29T15:30:38.790Z,19.35
2023-03-29T15:33:19.332Z,19.08
2023-03-29T15:38:15.938Z,20.25
2023-03-29T15:40:42.888Z,18.90
2023-03-29T15:43:10.823Z,19.40
2023-03-29T15:45:37.576Z,19.50
2023-03-29T15:48:20.051Z,19.52
2023-03-29T15:50:46.747Z,19.08
2023-03-29T15:53:15.815Z,18.92
2023-03-29T15:55:47.248Z,20.40
2023-03-29T15:58:19.981Z,18.67
2023-03-29T16:00:54.250Z,18.33
2023-03-29T16:03:22.447Z,18.85
2023-03-29T16:05:49.203Z,18.85
2023-03-29T16:08:16.568Z,20.52
2023-03-29T16:10:43.963Z,18.13
2023-03-29T16:13:14.069Z,17.45
2023-03-29T16:15:42.806Z,18.20
2023-03-29T16:18:09.488Z,19.38
2023-03-29T16:20:37.811Z,16.55
2023-03-29T16:23:09.790Z,17.45
2023-03-29T16:25:38.412Z,17.38
2023-03-29T16:28:05.789Z,16.48
2023-03-29T16:30:32.810Z,17.55
2023-03-29T16:32:59.490Z,16.88
2023-03-29T16:35:32.117Z,18.58
2023-03-29T16:37:59.127Z,19.33
2023-03-29T16:40:26.033Z,17.67
2023-03-29T16:42:52.750Z,17.75
2023-03-29T16:45:20.310Z,17.92
2023-03-29T16:47:47.252Z,19.00
2023-03-29T16:50:17.982Z,19.58
2023-03-29T16:52:46.161Z,18.30
2023-03-29T16:55:13.584Z,20.80
2023-03-29T16:57:40.341Z,21.30
2023-03-29T17:00:11.568Z,19.60
2023-03-29T17:02:38.317Z,18.85
2023-03-29T17:05:06.096Z,19.98
2023-03-29T17:07:33.850Z,21.33
2023-03-29T17:10:00.755Z,21.45
2023-03-29T17:12:27.454Z,19.73
2023-03-29T17:14:54.397Z,22.73
2023-03-29T17:17:21.149Z,20.98
2023-03-29T17:19:47.951Z,21.13
2023-03-29T17:22:15.146Z,22.48
2023-03-29T17:24:41.805Z,21.20
2023-03-29T17:27:08.720Z,20.70
2023-03-29T17:29:35.705Z,21.60
2023-03-29T17:32:02.367Z,22.52
2023-03-29T17:34:29.140Z,20.80
2023-03-29T17:36:56.770Z,22.10
2023-03-29T17:39:25.276Z,20.95
2023-03-29T17:41:52.116Z,22.27
2023-03-29T17:44:19.657Z,21.95
2023-03-29T17:46:46.767Z,22.20
2023-03-29T17:49:14.840Z,25.17
2023-03-29T17:51:41.796Z,23.83
2023-03-29T17:54:08.484Z,21.52
2023-03-29T17:56:35.314Z,22.15
2023-03-29T17:59:02.352Z,22.55
2023-03-29T18:01:29.434Z,22.40
2023-03-29T18:03:56.275Z,24.75
2023-03-29T18:06:23.040Z,24.35
2023-03-29T18:08:49.721Z,25.45
2023-03-29T18:11:22.374Z,24.65
2023-03-29T18:13:52.143Z,24.83
2023-03-29T18:16:20.552Z,25.48
2023-03-29T18:18:48.231Z,25.77
2023-03-29T18:21:16.688Z,25.65
2023-03-29T18:23:47.750Z,26.33
2023-03-29T18:26:16.568Z,26.88
2023-03-29T18:28:47.186Z,24.88
2023-03-29T18:33:40.967Z,24.60
2023-03-29T18:36:11.907Z,24.58
2023-03-29T18:38:40.672Z,25.17
2023-03-29T18:41:08.747Z,27.85
2023-03-29T18:43:36.183Z,26.48
2023-03-29T18:46:03.203Z,26.02
2023-03-29T18:48:30.358Z,26.00
2023-03-29T18:50:58.264Z,28.85
2023-03-29T18:53:25.217Z,26.55
2023-03-29T18:55:52.677Z,27.73
2023-03-29T18:58:23.058Z,26.38
2023-03-29T19:00:50.586Z,29.55
2023-03-29T19:03:17.926Z,26.00
2023-03-29T19:05:44.729Z,26.83
2023-03-29T19:08:11.469Z,27.45
2023-03-29T19:10:39.441Z,25.33
2023-03-29T19:13:06.373Z,27.42
2023-03-29T19:15:34.713Z,26.13
2023-03-29T19:18:01.804Z,25.90
2023-03-29T19:20:29.415Z,27.08
2023-03-29T19:22:56.470Z,25.17
2023-03-29T19:25:23.247Z,24.15
2023-03-29T19:27:50.405Z,24.80
2023-03-29T19:30:18.359Z,23.25
2023-03-29T19:32:45.032Z,23.33
2023-03-29T19:35:13.001Z,23.17
2023-03-29T19:37:40.032Z,24.00
2023-03-29T19:40:08.919Z,24.30
2023-03-29T19:42:36.199Z,27.63
2023-03-29T19:45:04.046Z,25.70
2023-03-29T19:47:31.118Z,25.65
2023-03-29T19:49:58.613Z,28.02
2023-03-29T19:52:27.859Z,24.90
2023-03-29T19:54:56.014Z,25.42
2023-03-29T19:57:23.947Z,23.92
2023-03-29T19:59:53.147Z,24.27
2023-03-29T20:02:19.948Z,26.30
2023-03-29T20:04:46.826Z,25.02
2023-03-29T20:07:13.435Z,25.27
2023-03-29T20:09:44.652Z,23.42
2023-03-29T20:12:12.095Z,27.48
2023-03-29T20:14:40.340Z,23.13
2023-03-29T20:17:08.544Z,25.92
2023-03-29T20:19:36.835Z,25.00
2023-03-29T20:22:04.580Z,23.95
2023-03-29T20:24:32.627Z,24.38
2023-03-29T20:26:59.718Z,23.95
2023-03-29T20:29:27.685Z,27.20
2023-03-29T20:31:54.506Z,25.20
2023-03-29T20:34:22.375Z,24.90
2023-03-29T20:36:49.193Z,25.92
2023-03-29T20:39:19.047Z,26.38
2023-03-29T20:41:51.700Z,24.48
2023-03-29T20:44:18.503Z,22.92
2023-03-29T20:46:54.687Z,25.27
2023-03-29T20:49:26.702Z,24.83
2023-03-29T20:51:59.455Z,24.15
2023-03-29T20:54:26.715Z,24.98
2023-03-29T20:56:54.754Z,22.60
2023-03-29T20:59:22.984Z,24.75
2023-03-29T21:01:50.307Z,29.88
2023-03-29T21:04:17.086Z,22.80
2023-03-29T21:06:45.838Z,22.25
2023-03-29T21:09:13.709Z,23.45
2023-03-29T21:11:40.367Z,25.27
2023-03-29T21:14:07.264Z,23.40
2023-03-29T21:16:33.966Z,21.65
2023-03-29T21:19:01.047Z,24.55
2023-03-29T21:21:29.668Z,25.13
2023-03-29T21:23:56.556Z,26.73
2023-03-29T21:26:23.572Z,27.67
2023-03-29T21:28:50.954Z,26.73
2023-03-29T21:31:17.808Z,25.52
2023-03-29T21:33:44.800Z,25.05
2023-03-29T21:36:11.498Z,26.20
2023-03-29T21:38:38.192Z,24.58
2023-03-29T21:41:09.854Z,26.48
2023-03-29T21:43:36.500Z,25.25
2023-03-29T21:46:03.253Z,25.13
2023-03-29T21:48:31.011Z,24.08
2023-03-29T21:50:57.806Z,24.50
2023-03-29T21:53:25.242Z,25.67
2023-03-29T21:55:52.167Z,25.42
2023-03-29T21:58:19.466Z,26.92
2023-03-29T22:00:47.420Z,28.73
2023-03-29T22:03:15.134Z,24.77
2023-03-29T22:05:42.108Z,28.58
2023-03-29T22:08:11.790Z,26.90
2023-03-29T22:10:41.297Z,27.50
2023-03-29T22:13:09.091Z,26.70
2023-03-29T22:15:38.932Z,24.52
2023-03-29T22:18:05.579Z,24.30
2023-03-29T22:20:35.643Z,28.13
2023-03-29T22:23:03.393Z,25.63
2023-03-29T22:25:30.038Z,24.30
2023-03-29T22:27:56.787Z,26.02
2023-03-29T22:30:23.528Z,26.17
2023-03-29T22:32:50.138Z,25.63
2023-03-29T22:35:16.961Z,23.52
2023-03-29T22:37:43.942Z,23.25
2023-03-29T22:40:12.092Z,23.15
2023-03-29T22:42:39.014Z,22.70
2023-03-29T22:45:06.661Z,25.40
2023-03-29T22:47:34.134Z,27.23
2023-03-29T22:50:00.881Z,23.10
2023-03-29T22:52:27.478Z,25.15
2023-03-29T22:54:54.036Z,23.23
2023-03-29T22:57:20.885Z,25.23
2023-03-29T22:59:47.521Z,21.73
2023-03-29T23:02:14.123Z,22.75
2023-03-29T23:04:42.216Z,22.40
2023-03-29T23:07:09.140Z,22.98
2023-03-29T23:09:35.777Z,24.27
2023-03-29T23:12:02.527Z,22.23
2023-03-29T23:14:29.700Z,24.13
2023-03-29T23:16:56.286Z,24.48
2023-03-29T23:19:23.063Z,23.83
2023-03-29T23:21:49.639Z,22.63
2023-03-29T23:24:19.064Z,24.00
2023-03-29T23:26:49.134Z,26.30
2023-03-29T23:29:15.771Z,22.10
2023-03-29T23:31:42.457Z,22.58
2023-03-29T23:34:09.605Z,22.73
2023-03-29T23:36:36.201Z,24.08
2023-03-29T23:39:03.049Z,22.88
2023-03-29T23:41:30.808Z,25.50
2023-03-29T23:43:57.731Z,21.33
2023-03-29T23:46:24.666Z,24.40
2023-03-29T23:48:51.429Z,22.65
2023-03-29T23:51:22.915Z,22.55
2023-03-29T23:53:50.091Z,21.50
2023-03-29T23:56:17.058Z,23.38
2023-03-29T23:58:44.477Z,24.40
